Shin Mei Maru — JG5617 — position and weather

sailwx.info

Track history (hours):
 
Tides and Currents Weather Stations Pressure Air Temp Water Temp Dewpoint Dewpoint Depression Visibility Wind Speed Wind Dir Waves Ship Positions

Shin Mei Maru

Last reported at 2014-Jul-20 18:21 UTC. Time now 2014-Jul-23 14:01 UTC.
Position N 35°58' E 141°05'.

Length 160 m; draft 6.8 m.

Type: Cargo ship. MMSI: 431100922.

Date/timePositionNaut miles runAvg speedWind from/ knotsBaromVisibWave heightAir tempDewpointWater temp
2014-Jul-20 18:21N 35°58' E 141°05'1517.3
2014-Jul-20 17:28N 35°43' E 141°01'1617.3
2014-Jul-20 16:33N 35°29' E 140°53'1917.7
2014-Jul-20 15:28N 35°14' E 140°38'1717.9
2014-Jul-20 14:31N 35°02' E 140°23'1818.2
2014-Jul-20 13:33N 34°53' E 140°05'1716.9
2014-Jul-20 12:33N 34°53' E 139°44'1817.8
2014-Jul-20 11:33N 35°10' E 139°46'1414.0
2014-Jul-20 10:33N 35°24' E 139°43'1212.5
2014-Jul-20 09:33N 35°37' E 139°46'1 1.2
2014-Jul-20 08:33N 35°38' E 139°46'0 0.0
2014-Jul-20 07:31N 35°38' E 139°46'0 0.0
2014-Jul-20 06:28N 35°38' E 139°46'0 0.0
2014-Jul-20 05:28N 35°38' E 139°46'1 0.6
2014-Jul-20 04:34N 35°37' E 139°46'1212.4
2014-Jul-20 03:33N 35°25' E 139°47'1212.2
2014-Jul-20 02:33N 35°13' E 139°47'1919.0
2014-Jul-20 01:33N 34°57' E 139°33'23418.0
2014-Jul-19 12:32N 33°50' E 135°01'1919.6
2014-Jul-19 11:33N 34°09' E 134°57'1919.2
2014-Jul-19 10:33N 34°27' E 135°07'1717.1
2014-Jul-19 09:33N 34°37' E 135°24'1 0.5
2014-Jul-19 08:32N 34°37' E 135°25'0 0.0
2014-Jul-19 07:29N 34°37' E 135°25'0 0.0
2014-Jul-19 06:23N 34°37' E 135°25'2 0.4
2014-Jul-19 00:33N 34°36' E 135°22'1817.9
2014-Jul-18 23:33N 34°24' E 135°07'1716.5
2014-Jul-18 22:33N 34°09' E 134°58'21814.4
2014-Jul-18 07:28N 34°51' E 139°18'1617.7
2014-Jul-18 06:33N 35°01' E 139°33'1717.5
2014-Jul-18 05:33N 35°15' E 139°46'1313.2
2014-Jul-18 04:33N 35°28' E 139°49'1010.1
2014-Jul-18 03:33N 35°38' E 139°46'0 0.0
2014-Jul-18 02:32N 35°38' E 139°46'0 0.0
2014-Jul-18 01:32N 35°38' E 139°46'0 0.0
2014-Jul-18 00:32N 35°38' E 139°46'0 0.0
2014-Jul-17 23:32N 35°38' E 139°46'0 0.0
2014-Jul-17 22:26N 35°38' E 139°46'4 4.9
2014-Jul-17 21:33N 35°34' E 139°48'1312.7
2014-Jul-17 20:33N 35°22' E 139°45'1312.7
2014-Jul-17 19:33N 35°09' E 139°47'1716.9
2014-Jul-17 18:33N 34°52' E 139°45'1616.1
2014-Jul-17 17:33N 34°54' E 140°04'2317.2
2014-Jul-17 16:12N 35°06' E 140°29'1116.6
2014-Jul-17 15:33N 35°15' E 140°37'1818.2
2014-Jul-17 14:33N 35°29' E 140°50'1919.1
2014-Jul-17 13:34N 35°46' E 141°02'  
2014-Jul-13 09:30N 34°58' E 140°15'1818.5
2014-Jul-13 08:33N 34°49' E 139°57'10511.7
2014-Jul-12 23:34N 34°05' E 138°01'2017.1
2014-Jul-12 22:25N 33°58' E 137°39'13314.9
2014-Jul-12 13:31N 33°52' E 134°59'1516.1
2014-Jul-12 12:33N 34°08' E 134°59'1515.0
2014-Jul-12 11:34N 34°23' E 135°01'1616.1
2014-Jul-12 10:34N 34°33' E 135°16'8 8.2
2014-Jul-12 09:34N 34°37' E 135°25'0 0.0
2014-Jul-12 08:12N 34°37' E 135°25'0 0.0
2014-Jul-12 06:24N 34°37' E 135°25'0 0.0
2014-Jul-12 04:18N 34°37' E 135°25'0 0.0
2014-Jul-12 03:30N 34°37' E 135°25'1011.0
2014-Jul-12 02:33N 34°32' E 135°14'1918.7
2014-Jul-12 01:34N 34°18' E 134°59'2419.4
2014-Jul-12 00:19N 33°54' E 134°58'22215.9
2014-Jul-11 10:22N 34°51' E 139°18'1316.0
2014-Jul-11 09:33N 34°59' E 139°30'1616.0
2014-Jul-11 08:33N 35°09' E 139°45'1313.0
2014-Jul-11 07:33N 35°22' E 139°42'1312.6
2014-Jul-11 06:34N 35°30' E 139°54'0 0.1
2014-Jul-11 05:32N 35°30' E 139°54'0 0.0
2014-Jul-11 04:29N 35°30' E 139°54'0 0.0
2014-Jul-11 03:29N 35°30' E 139°54'0 0.0
2014-Jul-11 02:29N 35°30' E 139°54'0 0.1
2014-Jul-11 01:32N 35°30' E 139°54'0 0.0
2014-Jul-11 00:29N 35°30' E 139°54'0 0.0
2014-Jul-10 23:20N 35°30' E 139°54'0 0.0
2014-Jul-10 22:32N 35°30' E 139°54'0 0.0
2014-Jul-10 21:29N 35°30' E 139°54'0 0.0
2014-Jul-10 20:32N 35°30' E 139°54'0 0.0
2014-Jul-10 19:23N 35°30' E 139°54'0 0.1
2014-Jul-10 18:31N 35°30' E 139°54'  
Track history (hours):
 
Tides and Currents Weather Stations Pressure Air Temp Water Temp Dewpoint Dewpoint Depression Visibility Wind Speed Wind Dir Waves Ship Positions

Shin Mei Maru

Last reported at 2014-Jul-20 18:21 UTC. Time now 2014-Jul-23 14:01 UTC.
Position N 35°58' E 141°05'.

Length 160 m; draft 6.8 m.

Type: Cargo ship. MMSI: 431100922.

Date/timePositionNaut miles runAvg speedWind from/ knotsBaromVisibWave heightAir tempDewpointWater temp
2014-Jul-20 18:21N 35°58' E 141°05'1517.3
2014-Jul-20 17:28N 35°43' E 141°01'1617.3
2014-Jul-20 16:33N 35°29' E 140°53'1917.7
2014-Jul-20 15:28N 35°14' E 140°38'1717.9
2014-Jul-20 14:31N 35°02' E 140°23'1818.2
2014-Jul-20 13:33N 34°53' E 140°05'1716.9
2014-Jul-20 12:33N 34°53' E 139°44'1817.8
2014-Jul-20 11:33N 35°10' E 139°46'1414.0
2014-Jul-20 10:33N 35°24' E 139°43'1212.5
2014-Jul-20 09:33N 35°37' E 139°46'1 1.2
2014-Jul-20 08:33N 35°38' E 139°46'0 0.0
2014-Jul-20 07:31N 35°38' E 139°46'0 0.0
2014-Jul-20 06:28N 35°38' E 139°46'0 0.0
2014-Jul-20 05:28N 35°38' E 139°46'1 0.6
2014-Jul-20 04:34N 35°37' E 139°46'1212.4
2014-Jul-20 03:33N 35°25' E 139°47'1212.2
2014-Jul-20 02:33N 35°13' E 139°47'1919.0
2014-Jul-20 01:33N 34°57' E 139°33'23418.0
2014-Jul-19 12:32N 33°50' E 135°01'1919.6
2014-Jul-19 11:33N 34°09' E 134°57'1919.2
2014-Jul-19 10:33N 34°27' E 135°07'1717.1
2014-Jul-19 09:33N 34°37' E 135°24'1 0.5
2014-Jul-19 08:32N 34°37' E 135°25'0 0.0
2014-Jul-19 07:29N 34°37' E 135°25'0 0.0
2014-Jul-19 06:23N 34°37' E 135°25'2 0.4
2014-Jul-19 00:33N 34°36' E 135°22'1817.9
2014-Jul-18 23:33N 34°24' E 135°07'1716.5
2014-Jul-18 22:33N 34°09' E 134°58'21814.4
2014-Jul-18 07:28N 34°51' E 139°18'1617.7
2014-Jul-18 06:33N 35°01' E 139°33'1717.5
2014-Jul-18 05:33N 35°15' E 139°46'1313.2
2014-Jul-18 04:33N 35°28' E 139°49'1010.1
2014-Jul-18 03:33N 35°38' E 139°46'0 0.0
2014-Jul-18 02:32N 35°38' E 139°46'0 0.0
2014-Jul-18 01:32N 35°38' E 139°46'0 0.0
2014-Jul-18 00:32N 35°38' E 139°46'0 0.0
2014-Jul-17 23:32N 35°38' E 139°46'0 0.0
2014-Jul-17 22:26N 35°38' E 139°46'4 4.9
2014-Jul-17 21:33N 35°34' E 139°48'1312.7
2014-Jul-17 20:33N 35°22' E 139°45'1312.7
2014-Jul-17 19:33N 35°09' E 139°47'1716.9
2014-Jul-17 18:33N 34°52' E 139°45'1616.1
2014-Jul-17 17:33N 34°54' E 140°04'2317.2
2014-Jul-17 16:12N 35°06' E 140°29'1116.6
2014-Jul-17 15:33N 35°15' E 140°37'1818.2
2014-Jul-17 14:33N 35°29' E 140°50'1919.1
2014-Jul-17 13:34N 35°46' E 141°02'  
2014-Jul-13 09:30N 34°58' E 140°15'1818.5
2014-Jul-13 08:33N 34°49' E 139°57'10511.7
2014-Jul-12 23:34N 34°05' E 138°01'2017.1
2014-Jul-12 22:25N 33°58' E 137°39'13314.9
2014-Jul-12 13:31N 33°52' E 134°59'1516.1
2014-Jul-12 12:33N 34°08' E 134°59'1515.0
2014-Jul-12 11:34N 34°23' E 135°01'1616.1
2014-Jul-12 10:34N 34°33' E 135°16'8 8.2
2014-Jul-12 09:34N 34°37' E 135°25'0 0.0
2014-Jul-12 08:12N 34°37' E 135°25'0 0.0
2014-Jul-12 06:24N 34°37' E 135°25'0 0.0
2014-Jul-12 04:18N 34°37' E 135°25'0 0.0
2014-Jul-12 03:30N 34°37' E 135°25'1011.0
2014-Jul-12 02:33N 34°32' E 135°14'1918.7
2014-Jul-12 01:34N 34°18' E 134°59'2419.4
2014-Jul-12 00:19N 33°54' E 134°58'22215.9
2014-Jul-11 10:22N 34°51' E 139°18'1316.0
2014-Jul-11 09:33N 34°59' E 139°30'1616.0
2014-Jul-11 08:33N 35°09' E 139°45'1313.0
2014-Jul-11 07:33N 35°22' E 139°42'1312.6
2014-Jul-11 06:34N 35°30' E 139°54'0 0.1
2014-Jul-11 05:32N 35°30' E 139°54'0 0.0
2014-Jul-11 04:29N 35°30' E 139°54'0 0.0
2014-Jul-11 03:29N 35°30' E 139°54'0 0.0
2014-Jul-11 02:29N 35°30' E 139°54'0 0.1
2014-Jul-11 01:32N 35°30' E 139°54'0 0.0
2014-Jul-11 00:29N 35°30' E 139°54'0 0.0
2014-Jul-10 23:20N 35°30' E 139°54'0 0.0
2014-Jul-10 22:32N 35°30' E 139°54'0 0.0
2014-Jul-10 21:29N 35°30' E 139°54'0 0.0
2014-Jul-10 20:32N 35°30' E 139°54'0 0.0
2014-Jul-10 19:23N 35°30' E 139°54'0 0.1
2014-Jul-10 18:31N 35°30' E 139°54'  

Dump ship's entire track history